createdAt,value
2023-08-14T00:02:16.582Z,20.19
2023-08-14T00:04:44.107Z,20.23
2023-08-14T00:07:11.458Z,20.30
2023-08-14T00:09:38.822Z,20.30
2023-08-14T00:12:06.485Z,20.12
2023-08-14T00:14:33.943Z,19.98
2023-08-14T00:17:01.398Z,19.95
2023-08-14T00:19:28.794Z,19.72
2023-08-14T00:21:56.602Z,19.75
2023-08-14T00:24:24.104Z,19.61
2023-08-14T00:26:51.403Z,19.68
2023-08-14T00:29:18.775Z,19.85
2023-08-14T00:31:46.090Z,19.65
2023-08-14T00:34:13.641Z,19.50
2023-08-14T00:36:40.976Z,19.46
2023-08-14T00:39:08.385Z,19.43
2023-08-14T00:41:35.777Z,19.34
2023-08-14T00:44:03.308Z,19.38
2023-08-14T00:46:30.621Z,19.38
2023-08-14T00:48:58.024Z,19.41
2023-08-14T00:51:26.133Z,19.43
2023-08-14T00:53:53.532Z,19.40
2023-08-14T00:56:20.919Z,19.37
2023-08-14T00:58:48.742Z,19.30
2023-08-14T01:01:16.109Z,19.26
2023-08-14T01:03:44.722Z,19.33
2023-08-14T01:06:12.096Z,19.30
2023-08-14T01:08:39.406Z,19.28
2023-08-14T01:11:14.152Z,19.20
2023-08-14T01:13:55.749Z,19.24
2023-08-14T01:16:25.662Z,19.30
2023-08-14T01:18:53.296Z,19.26
2023-08-14T01:21:24.857Z,19.14
2023-08-14T01:24:16.565Z,19.20
2023-08-14T01:26:46.863Z,19.16
2023-08-14T01:29:15.949Z,19.14
2023-08-14T01:31:43.313Z,19.10
2023-08-14T01:34:11.697Z,19.14
2023-08-14T01:37:18.994Z,19.04
2023-08-14T01:39:49.284Z,19.04
2023-08-14T01:42:37.145Z,19.14
2023-08-14T01:45:11.016Z,18.90
2023-08-14T01:47:38.469Z,18.93
2023-08-14T01:50:07.114Z,18.83
2023-08-14T01:52:34.512Z,18.99
2023-08-14T01:55:01.947Z,19.02
2023-08-14T01:57:31.376Z,19.11
2023-08-14T01:59:58.764Z,19.17
2023-08-14T02:02:26.221Z,19.13
2023-08-14T02:04:54.352Z,19.07
2023-08-14T02:07:23.192Z,18.95
2023-08-14T02:09:50.567Z,18.76
2023-08-14T02:12:18.064Z,18.62
2023-08-14T02:14:45.528Z,18.55
2023-08-14T02:17:12.917Z,18.58
2023-08-14T02:19:42.477Z,18.53
2023-08-14T02:22:09.783Z,18.41
2023-08-14T02:24:37.129Z,18.32
2023-08-14T02:27:04.995Z,18.48
2023-08-14T02:29:34.441Z,18.42
2023-08-14T02:32:01.858Z,18.34
2023-08-14T02:34:47.034Z,18.34
2023-08-14T02:37:14.982Z,18.35
2023-08-14T02:39:42.495Z,18.30
2023-08-14T02:42:10.007Z,18.28
2023-08-14T02:44:37.370Z,18.18
2023-08-14T02:47:05.132Z,18.15
2023-08-14T02:49:32.434Z,18.13
2023-08-14T02:52:00.198Z,18.15
2023-08-14T02:54:27.558Z,18.17
2023-08-14T02:56:55.255Z,18.15
2023-08-14T02:59:25.431Z,18.18
2023-08-14T03:01:52.901Z,18.21
2023-08-14T03:04:20.193Z,18.15
2023-08-14T03:06:47.696Z,18.20
2023-08-14T03:09:15.036Z,18.27
2023-08-14T03:11:42.372Z,18.20
2023-08-14T03:14:09.975Z,18.10
2023-08-14T03:16:37.360Z,18.14
2023-08-14T03:19:04.938Z,18.05
2023-08-14T03:21:32.449Z,18.07
2023-08-14T03:23:59.766Z,18.11
2023-08-14T03:26:27.141Z,18.18
2023-08-14T03:28:54.528Z,18.08
2023-08-14T03:31:22.935Z,17.94
2023-08-14T03:33:50.884Z,17.87
2023-08-14T03:36:18.419Z,17.93
2023-08-14T03:38:45.889Z,17.79
2023-08-14T03:41:14.252Z,17.82
2023-08-14T03:43:41.953Z,17.72
2023-08-14T03:46:09.434Z,17.69
2023-08-14T03:48:36.891Z,17.72
2023-08-14T03:51:04.321Z,17.73
2023-08-14T03:53:31.902Z,17.52
2023-08-14T03:55:59.296Z,17.69
2023-08-14T03:58:26.583Z,17.61
2023-08-14T04:00:54.463Z,17.55
2023-08-14T04:03:23.250Z,17.49
2023-08-14T04:05:56.013Z,17.52
2023-08-14T04:08:23.440Z,17.69
2023-08-14T04:10:58.520Z,17.84
2023-08-14T04:13:27.037Z,17.84
2023-08-14T04:16:01.022Z,17.80
2023-08-14T04:18:28.991Z,17.66
2023-08-14T04:20:56.662Z,17.66
2023-08-14T04:23:25.401Z,17.79
2023-08-14T04:25:53.388Z,17.72
2023-08-14T04:28:22.030Z,17.73
2023-08-14T04:30:49.522Z,17.72
2023-08-14T04:33:17.926Z,17.74
2023-08-14T04:35:46.659Z,17.70
2023-08-14T04:38:14.819Z,17.67
2023-08-14T04:40:45.709Z,17.74
2023-08-14T04:43:13.150Z,17.79
2023-08-14T04:45:40.750Z,17.91
2023-08-14T04:48:08.178Z,18.07
2023-08-14T04:50:36.316Z,18.15
2023-08-14T04:53:06.580Z,18.30
2023-08-14T04:55:35.786Z,18.20
2023-08-14T04:58:03.220Z,18.28
2023-08-14T05:00:30.716Z,18.35
2023-08-14T05:03:00.472Z,18.34
2023-08-14T05:05:27.877Z,18.41
2023-08-14T05:07:55.256Z,18.44
2023-08-14T05:10:22.753Z,18.53
2023-08-14T05:12:50.248Z,18.59
2023-08-14T05:15:17.656Z,18.69
2023-08-14T05:17:45.725Z,18.79
2023-08-14T05:20:13.856Z,18.92
2023-08-14T05:22:41.299Z,18.99
2023-08-14T05:25:10.276Z,19.13
2023-08-14T05:27:40.159Z,19.20
2023-08-14T05:30:08.042Z,19.21
2023-08-14T05:32:35.606Z,19.21
2023-08-14T05:35:03.158Z,19.31
2023-08-14T05:37:30.552Z,19.44
2023-08-14T05:39:58.038Z,19.50
2023-08-14T05:42:25.354Z,19.58
2023-08-14T05:44:52.784Z,19.68
2023-08-14T05:47:20.102Z,19.78
2023-08-14T05:49:47.452Z,19.89
2023-08-14T05:52:14.901Z,20.16
2023-08-14T05:54:42.432Z,20.37
2023-08-14T05:57:09.813Z,20.47
2023-08-14T05:59:37.231Z,20.47
2023-08-14T06:02:04.606Z,20.49
2023-08-14T06:04:32.124Z,20.67
2023-08-14T06:07:01.690Z,20.76
2023-08-14T06:09:29.364Z,20.84
2023-08-14T06:11:56.625Z,20.87
2023-08-14T06:14:24.253Z,20.98
2023-08-14T06:16:51.719Z,21.15
2023-08-14T06:19:19.197Z,21.29
2023-08-14T06:21:46.668Z,21.46
2023-08-14T06:24:14.166Z,21.47
2023-08-14T06:26:41.623Z,21.57
2023-08-14T06:29:09.143Z,21.67
2023-08-14T06:31:36.549Z,21.86
2023-08-14T06:34:04.054Z,21.96
2023-08-14T06:36:31.915Z,22.15
2023-08-14T06:38:59.259Z,22.24
2023-08-14T06:41:26.658Z,22.38
2023-08-14T06:43:54.921Z,22.45
2023-08-14T06:46:22.249Z,23.12
2023-08-14T06:48:49.762Z,25.70
2023-08-14T06:51:17.598Z,27.44
2023-08-14T06:53:45.363Z,29.00
2023-08-14T06:56:12.720Z,28.94
2023-08-14T06:58:40.177Z,29.83
2023-08-14T07:01:08.324Z,29.96
2023-08-14T07:03:36.042Z,30.71
2023-08-14T07:06:03.972Z,30.69
2023-08-14T07:08:31.411Z,29.80
2023-08-14T07:10:59.079Z,30.28
2023-08-14T07:13:26.606Z,30.76
2023-08-14T07:15:53.910Z,30.71
2023-08-14T07:18:21.537Z,31.11
2023-08-14T07:20:49.343Z,31.90
2023-08-14T07:23:17.555Z,32.63
2023-08-14T07:25:45.376Z,32.79
2023-08-14T07:28:12.914Z,31.50
2023-08-14T07:30:40.583Z,31.47
2023-08-14T07:33:09.041Z,31.98
2023-08-14T07:35:36.554Z,32.01
2023-08-14T07:38:04.710Z,31.88
2023-08-14T07:40:31.997Z,32.38
2023-08-14T07:42:59.458Z,32.75
2023-08-14T07:45:27.055Z,32.87
2023-08-14T07:47:54.911Z,33.58
2023-08-14T07:50:22.710Z,33.21
2023-08-14T07:52:50.130Z,33.20
2023-08-14T07:55:17.684Z,34.06
2023-08-14T07:57:47.239Z,33.75
2023-08-14T08:00:15.216Z,33.91
2023-08-14T08:02:43.802Z,33.13
2023-08-14T08:05:11.248Z,31.37
2023-08-14T08:07:38.626Z,31.15
2023-08-14T08:10:06.475Z,31.64
2023-08-14T08:12:33.907Z,31.69
2023-08-14T08:15:01.254Z,31.11
2023-08-14T08:17:28.729Z,31.97
2023-08-14T08:19:56.271Z,31.97
2023-08-14T08:22:23.607Z,32.45
2023-08-14T08:24:50.920Z,31.80
2023-08-14T08:27:18.356Z,31.47
2023-08-14T08:29:46.629Z,31.51
2023-08-14T08:32:14.143Z,32.97
2023-08-14T08:34:41.488Z,33.31
2023-08-14T08:37:08.927Z,32.65
2023-08-14T08:39:36.310Z,33.00
2023-08-14T08:42:03.935Z,31.95
2023-08-14T08:44:35.404Z,31.23
2023-08-14T08:47:11.098Z,31.36
2023-08-14T08:49:38.581Z,31.74
2023-08-14T08:52:06.372Z,31.71
2023-08-14T08:54:33.966Z,31.26
2023-08-14T08:57:01.427Z,29.80
2023-08-14T08:59:28.871Z,29.07
2023-08-14T09:01:57.981Z,28.40
2023-08-14T09:04:26.237Z,27.82
2023-08-14T09:06:54.086Z,27.74
2023-08-14T09:09:21.787Z,27.98
2023-08-14T09:11:49.028Z,28.19
2023-08-14T09:14:18.800Z,28.29
2023-08-14T09:16:46.449Z,28.25
2023-08-14T09:19:18.095Z,28.40
2023-08-14T09:21:45.998Z,28.19
2023-08-14T09:24:13.958Z,27.87
2023-08-14T09:26:44.003Z,28.13
2023-08-14T09:29:14.952Z,28.35
2023-08-14T09:31:45.942Z,28.45
2023-08-14T09:34:19.702Z,28.50
2023-08-14T09:36:48.897Z,28.40
2023-08-14T09:39:19.050Z,28.61
2023-08-14T09:41:48.480Z,28.70
2023-08-14T09:44:18.990Z,28.50
2023-08-14T09:46:46.722Z,28.59
2023-08-14T09:49:14.203Z,28.83
2023-08-14T09:51:41.672Z,29.03
2023-08-14T09:54:09.556Z,29.08
2023-08-14T09:56:37.078Z,29.15
2023-08-14T09:59:04.667Z,28.93
2023-08-14T10:01:32.479Z,29.18
2023-08-14T10:03:59.818Z,29.36
2023-08-14T10:06:27.235Z,29.03
2023-08-14T10:08:59.608Z,29.07
2023-08-14T10:11:29.402Z,29.24
2023-08-14T10:13:58.880Z,29.35
2023-08-14T10:16:29.185Z,29.19
2023-08-14T10:18:56.835Z,29.38
2023-08-14T10:21:27.924Z,29.42
2023-08-14T10:23:55.556Z,29.77
2023-08-14T10:26:24.384Z,29.87
2023-08-14T10:28:53.660Z,29.72
2023-08-14T10:31:21.215Z,29.45
2023-08-14T10:33:48.665Z,29.45
2023-08-14T10:36:20.511Z,29.75
2023-08-14T10:38:48.145Z,29.93
2023-08-14T10:41:16.385Z,29.63
2023-08-14T10:43:44.026Z,29.97
2023-08-14T10:46:12.353Z,29.79
2023-08-14T10:48:39.849Z,30.20
2023-08-14T10:51:09.392Z,30.06
2023-08-14T10:53:37.525Z,30.18
2023-08-14T10:56:08.506Z,30.40
2023-08-14T10:58:36.834Z,30.13
2023-08-14T11:01:04.798Z,30.28
2023-08-14T11:04:04.711Z,30.35
2023-08-14T11:07:09.965Z,30.37
2023-08-14T11:09:38.156Z,30.07
2023-08-14T11:12:07.027Z,30.41
2023-08-14T11:14:39.545Z,30.75
2023-08-14T11:17:07.397Z,30.51
2023-08-14T11:19:36.261Z,30.49
2023-08-14T11:22:03.985Z,30.58
2023-08-14T11:24:33.530Z,30.68
2023-08-14T11:27:01.709Z,30.65
2023-08-14T11:29:31.067Z,30.38
2023-08-14T11:32:01.431Z,30.10
2023-08-14T11:34:29.245Z,30.31
2023-08-14T11:39:32.625Z,30.38
2023-08-14T11:41:59.885Z,30.52
2023-08-14T11:44:27.416Z,30.65
2023-08-14T11:46:54.837Z,30.89
2023-08-14T11:49:22.206Z,30.91
2023-08-14T11:51:50.282Z,30.62
2023-08-14T11:54:17.690Z,30.49
2023-08-14T11:56:45.180Z,30.82
2023-08-14T11:59:12.616Z,30.86
2023-08-14T12:01:40.216Z,30.68
2023-08-14T12:04:08.405Z,30.69
2023-08-14T12:06:35.945Z,30.76
2023-08-14T12:09:07.440Z,30.92
2023-08-14T12:11:34.777Z,31.33
2023-08-14T12:14:04.947Z,31.51
2023-08-14T12:16:32.445Z,31.41
2023-08-14T12:18:59.831Z,31.54
2023-08-14T12:21:28.393Z,31.22
2023-08-14T12:23:56.238Z,31.29
2023-08-14T12:26:23.923Z,30.89
2023-08-14T12:28:51.262Z,30.68
2023-08-14T12:31:19.011Z,30.79
2023-08-14T12:33:48.897Z,30.82
2023-08-14T12:36:21.041Z,30.88
2023-08-14T12:38:48.338Z,31.06
2023-08-14T12:41:15.754Z,30.95
2023-08-14T12:43:43.351Z,31.27
2023-08-14T12:46:10.888Z,30.88
2023-08-14T12:48:38.217Z,31.11
2023-08-14T12:53:35.890Z,31.32
2023-08-14T12:56:04.751Z,31.04
2023-08-14T12:58:32.287Z,30.93
2023-08-14T13:01:04.950Z,30.92
2023-08-14T13:03:36.644Z,30.85
2023-08-14T13:06:06.957Z,31.26
2023-08-14T13:08:34.275Z,31.49
2023-08-14T13:11:01.680Z,31.40
2023-08-14T13:13:29.026Z,31.39
2023-08-14T13:15:56.793Z,31.40
2023-08-14T13:18:24.611Z,31.30
2023-08-14T13:20:52.198Z,31.06
2023-08-14T13:23:19.563Z,31.46
2023-08-14T13:25:46.929Z,31.59
2023-08-14T13:28:14.466Z,31.39
2023-08-14T13:30:44.433Z,31.18
2023-08-14T13:33:15.416Z,31.08
2023-08-14T13:35:42.955Z,31.13
2023-08-14T13:38:10.172Z,31.15
2023-08-14T13:40:37.661Z,31.27
2023-08-14T13:43:05.044Z,31.34
2023-08-14T13:45:32.402Z,31.27
2023-08-14T13:47:59.976Z,31.11
2023-08-14T13:50:33.170Z,31.12
2023-08-14T13:53:02.116Z,31.40
2023-08-14T13:55:30.500Z,31.51
2023-08-14T13:57:58.303Z,31.50
2023-08-14T14:00:29.377Z,31.61
2023-08-14T14:02:58.696Z,31.61
2023-08-14T14:05:26.442Z,31.57
2023-08-14T14:07:55.886Z,31.41
2023-08-14T14:10:27.845Z,31.44
2023-08-14T14:13:01.949Z,31.59
2023-08-14T14:15:31.267Z,31.77
2023-08-14T14:17:59.020Z,31.88
2023-08-14T14:20:26.527Z,31.74
2023-08-14T14:22:53.863Z,31.36
2023-08-14T14:25:21.366Z,31.33
2023-08-14T14:27:48.671Z,31.32
2023-08-14T14:30:16.247Z,31.43
2023-08-14T14:32:43.536Z,31.33
2023-08-14T14:35:10.943Z,30.93
2023-08-14T14:37:38.295Z,31.06
2023-08-14T14:40:06.735Z,31.02
2023-08-14T14:42:33.955Z,31.08
2023-08-14T14:45:01.345Z,30.58
2023-08-14T14:47:28.728Z,30.65
2023-08-14T14:49:56.048Z,30.65
2023-08-14T14:52:23.356Z,30.48
2023-08-14T14:54:50.846Z,30.64
2023-08-14T14:57:18.602Z,30.45
2023-08-14T14:59:47.345Z,30.45
2023-08-14T15:02:27.696Z,30.58
2023-08-14T15:04:57.175Z,30.88
2023-08-14T15:07:24.579Z,30.91
2023-08-14T15:09:52.113Z,30.52
2023-08-14T15:12:19.475Z,30.48
2023-08-14T15:14:47.118Z,30.55
2023-08-14T15:17:14.446Z,30.65
2023-08-14T15:19:41.981Z,30.37
2023-08-14T15:22:09.308Z,30.35
2023-08-14T15:24:37.140Z,30.41
2023-08-14T15:27:04.572Z,30.40
2023-08-14T15:29:31.913Z,30.24
2023-08-14T15:31:59.314Z,30.13
2023-08-14T15:34:26.778Z,29.99
2023-08-14T15:36:54.158Z,29.97
2023-08-14T15:39:21.538Z,29.96
2023-08-14T15:41:48.809Z,29.93
2023-08-14T15:44:16.215Z,29.85
2023-08-14T15:46:43.444Z,29.87
2023-08-14T15:49:10.847Z,29.93
2023-08-14T15:51:38.138Z,30.06
2023-08-14T15:54:05.729Z,30.07
2023-08-14T15:56:32.972Z,29.87
2023-08-14T15:59:00.415Z,29.73
2023-08-14T16:01:27.743Z,29.76
2023-08-14T16:03:55.067Z,29.73
2023-08-14T16:06:22.397Z,29.67
2023-08-14T16:08:49.759Z,29.79
2023-08-14T16:11:17.138Z,29.82
2023-08-14T16:13:44.485Z,29.73
2023-08-14T16:16:11.862Z,29.59
2023-08-14T16:18:39.353Z,29.63
2023-08-14T16:21:07.474Z,29.61
2023-08-14T16:23:34.872Z,29.36
2023-08-14T16:26:02.259Z,29.42
2023-08-14T16:28:29.661Z,29.28
2023-08-14T16:30:57.146Z,29.31
2023-08-14T16:33:24.661Z,29.28
2023-08-14T16:35:52.091Z,29.08
2023-08-14T16:38:19.511Z,29.01
2023-08-14T16:40:46.981Z,28.94
2023-08-14T16:43:14.384Z,28.91
2023-08-14T16:45:43.139Z,28.87
2023-08-14T16:48:12.405Z,28.93
2023-08-14T16:50:39.963Z,28.80
2023-08-14T16:53:08.332Z,28.69
2023-08-14T16:55:35.759Z,28.67
2023-08-14T16:58:03.256Z,28.70
2023-08-14T17:00:30.610Z,28.57
2023-08-14T17:02:58.334Z,28.48
2023-08-14T17:05:25.828Z,28.39
2023-08-14T17:07:53.444Z,28.28
2023-08-14T17:10:20.938Z,28.32
2023-08-14T17:12:50.184Z,28.26
2023-08-14T17:17:50.070Z,28.19
2023-08-14T17:20:17.460Z,28.13
2023-08-14T17:22:44.905Z,28.04
2023-08-14T17:25:12.284Z,27.91
2023-08-14T17:27:39.722Z,27.88
2023-08-14T17:30:07.822Z,27.87
2023-08-14T17:32:35.245Z,27.91
2023-08-14T17:35:02.577Z,27.78
2023-08-14T17:37:30.378Z,27.70
2023-08-14T17:39:57.878Z,27.76
2023-08-14T17:42:25.256Z,27.81
2023-08-14T17:44:52.559Z,27.77
2023-08-14T17:47:22.237Z,27.55
2023-08-14T17:49:49.752Z,27.51
2023-08-14T17:52:17.176Z,27.47
2023-08-14T17:54:44.565Z,27.51
2023-08-14T17:57:11.946Z,27.17
2023-08-14T17:59:39.276Z,27.22
2023-08-14T18:02:06.633Z,27.26
2023-08-14T18:04:33.946Z,27.09
2023-08-14T18:07:01.580Z,27.19
2023-08-14T18:09:29.074Z,27.26
2023-08-14T18:11:56.431Z,26.92
2023-08-14T18:14:23.734Z,26.72
2023-08-14T18:16:51.198Z,26.52
2023-08-14T18:21:49.411Z,26.31
2023-08-14T18:24:16.995Z,26.24
2023-08-14T18:26:44.368Z,26.23
2023-08-14T18:29:11.773Z,26.31
2023-08-14T18:31:39.236Z,26.13
2023-08-14T18:34:07.044Z,26.07
2023-08-14T18:36:34.934Z,26.00
2023-08-14T18:39:02.391Z,25.92
2023-08-14T18:41:29.807Z,25.80
2023-08-14T18:43:57.157Z,25.79
2023-08-14T18:46:24.841Z,25.75
2023-08-14T18:48:52.188Z,25.79
2023-08-14T18:51:19.575Z,25.79
2023-08-14T18:53:48.270Z,25.80
2023-08-14T18:56:15.726Z,25.80
2023-08-14T18:58:43.011Z,25.67
2023-08-14T19:01:12.628Z,25.58
2023-08-14T19:03:39.946Z,25.62
2023-08-14T19:06:07.367Z,25.58
2023-08-14T19:08:34.890Z,25.48
2023-08-14T19:11:02.258Z,25.29
2023-08-14T19:13:29.601Z,25.15
2023-08-14T19:15:57.044Z,25.05
2023-08-14T19:18:24.381Z,24.98
2023-08-14T19:20:51.764Z,24.87
2023-08-14T19:23:19.143Z,24.90
2023-08-14T19:25:47.299Z,25.04
2023-08-14T19:28:21.738Z,25.07
2023-08-14T19:30:50.502Z,25.11
2023-08-14T19:33:17.996Z,25.05
2023-08-14T19:35:45.524Z,24.98
2023-08-14T19:38:12.913Z,24.90
2023-08-14T19:40:40.362Z,24.88
2023-08-14T19:43:07.765Z,24.98
2023-08-14T19:45:36.713Z,24.99
2023-08-14T19:48:04.739Z,24.92
2023-08-14T19:50:33.855Z,24.80
2023-08-14T19:53:01.292Z,24.68
2023-08-14T19:55:29.164Z,24.56
2023-08-14T19:57:56.509Z,24.49
2023-08-14T20:00:24.284Z,24.37
2023-08-14T20:02:54.088Z,24.37
2023-08-14T20:05:21.885Z,24.30
2023-08-14T20:07:49.269Z,24.36
2023-08-14T20:10:17.155Z,24.41
2023-08-14T20:12:44.507Z,24.33
2023-08-14T20:15:12.025Z,24.25
2023-08-14T20:17:39.434Z,24.13
2023-08-14T20:20:08.117Z,24.08
2023-08-14T20:22:35.385Z,24.01
2023-08-14T20:25:02.968Z,23.98
2023-08-14T20:27:30.257Z,23.92
2023-08-14T20:29:57.653Z,23.79
2023-08-14T20:32:24.895Z,23.78
2023-08-14T20:34:52.270Z,23.81
2023-08-14T20:37:19.871Z,23.74
2023-08-14T20:39:47.788Z,23.82
2023-08-14T20:42:15.309Z,23.77
2023-08-14T20:44:42.722Z,23.75
2023-08-14T20:47:09.974Z,23.72
2023-08-14T20:49:37.307Z,23.77
2023-08-14T20:52:05.113Z,23.91
2023-08-14T20:54:32.489Z,24.01
2023-08-14T20:56:59.754Z,23.92
2023-08-14T20:59:27.240Z,23.74
2023-08-14T21:01:55.819Z,23.68
2023-08-14T21:04:23.325Z,23.75
2023-08-14T21:06:50.798Z,23.75
2023-08-14T21:09:18.256Z,23.78
2023-08-14T21:11:45.538Z,23.54
2023-08-14T21:14:13.024Z,23.23
2023-08-14T21:16:40.528Z,23.13
2023-08-14T21:19:08.291Z,23.06
2023-08-14T21:21:35.731Z,23.04
2023-08-14T21:24:03.138Z,22.99
2023-08-14T21:26:31.244Z,22.92
2023-08-14T21:28:58.823Z,22.83
2023-08-14T21:31:26.243Z,22.79
2023-08-14T21:33:53.633Z,22.88
2023-08-14T21:36:20.883Z,22.98
2023-08-14T21:38:48.257Z,23.04
2023-08-14T21:41:15.517Z,22.98
2023-08-14T21:43:43.492Z,22.82
2023-08-14T21:46:10.803Z,22.86
2023-08-14T21:48:38.282Z,22.82
2023-08-14T21:51:05.602Z,22.72
2023-08-14T21:53:33.088Z,22.68
2023-08-14T21:56:00.361Z,22.54
2023-08-14T21:58:27.753Z,22.47
2023-08-14T22:00:55.109Z,22.48
2023-08-14T22:03:22.497Z,22.51
2023-08-14T22:05:59.411Z,22.55
2023-08-14T22:08:27.789Z,22.62
2023-08-14T22:10:56.093Z,22.71
2023-08-14T22:13:23.552Z,22.59
2023-08-14T22:15:51.210Z,22.49
2023-08-14T22:18:19.070Z,22.35
2023-08-14T22:20:46.514Z,22.20
2023-08-14T22:23:14.159Z,22.15
2023-08-14T22:25:42.417Z,22.13
2023-08-14T22:28:09.824Z,22.20
2023-08-14T22:30:37.388Z,22.18
2023-08-14T22:33:05.310Z,22.05
2023-08-14T22:35:32.644Z,22.00
2023-08-14T22:38:00.050Z,21.92
2023-08-14T22:40:27.404Z,21.90
2023-08-14T22:42:55.970Z,21.93
2023-08-14T22:45:25.333Z,21.80
2023-08-14T22:47:52.878Z,21.77
2023-08-14T22:50:20.346Z,21.70
2023-08-14T22:52:47.701Z,21.69
2023-08-14T22:55:15.004Z,21.70
2023-08-14T22:57:42.421Z,21.65
2023-08-14T23:00:10.305Z,21.66
2023-08-14T23:02:39.279Z,21.65
2023-08-14T23:05:08.502Z,21.73
2023-08-14T23:07:36.088Z,21.70
2023-08-14T23:10:03.451Z,21.73
2023-08-14T23:12:30.800Z,21.73
2023-08-14T23:14:58.040Z,21.73
2023-08-14T23:17:25.381Z,21.70
2023-08-14T23:19:52.836Z,21.62
2023-08-14T23:22:20.535Z,21.55
2023-08-14T23:24:47.849Z,21.60
2023-08-14T23:27:15.208Z,21.62
2023-08-14T23:29:42.556Z,21.55
2023-08-14T23:32:10.053Z,21.63
2023-08-14T23:34:37.341Z,21.47
2023-08-14T23:37:05.022Z,21.34
2023-08-14T23:39:32.277Z,21.34
2023-08-14T23:41:59.688Z,21.36
2023-08-14T23:44:27.453Z,21.31
2023-08-14T23:46:54.927Z,21.22
2023-08-14T23:49:22.430Z,21.18
2023-08-14T23:51:49.909Z,21.31
2023-08-14T23:54:17.122Z,21.21
2023-08-14T23:56:44.535Z,21.14
2023-08-14T23:59:11.898Z,21.05
